createdAt,value
2018-04-07T17:16:17.114Z,10.70
2018-04-07T17:18:44.568Z,10.90
2018-04-07T17:21:12.138Z,8.23
2018-04-07T17:23:39.598Z,16.87
2018-04-07T17:26:07.093Z,14.65
2018-04-07T17:28:34.603Z,12.33
2018-04-07T17:31:02.068Z,11.70
2018-04-07T17:33:29.789Z,8.37
2018-04-07T17:35:57.240Z,9.07
2018-04-07T17:38:24.724Z,9.23
2018-04-07T17:40:52.168Z,9.10
2018-04-07T17:43:19.691Z,8.80
2018-04-07T17:45:47.125Z,11.77
2018-04-07T17:48:14.590Z,9.10
2018-04-07T17:50:42.043Z,10.20
2018-04-07T17:53:09.585Z,11.43
2018-04-07T17:55:37.089Z,13.10
2018-04-07T17:58:04.534Z,13.67
2018-04-07T18:00:31.989Z,14.00
2018-04-07T18:02:59.448Z,10.07
2018-04-07T18:05:27.736Z,17.43
2018-04-07T18:07:55.971Z,14.10
2018-04-07T18:10:23.429Z,10.80
2018-04-07T18:12:50.951Z,12.00
2018-04-07T18:15:18.392Z,12.33
2018-04-07T18:17:45.867Z,13.43
2018-04-07T18:20:13.457Z,11.63
2018-04-07T18:22:40.940Z,12.00
2018-04-07T18:25:08.429Z,12.17
2018-04-07T18:27:35.874Z,13.00
2018-04-07T18:30:03.443Z,20.60
2018-04-07T18:32:31.270Z,15.30
2018-04-07T18:34:58.746Z,17.33
2018-04-07T18:37:26.799Z,14.60
2018-04-07T18:39:55.783Z,14.83
2018-04-07T18:42:25.620Z,12.70
2018-04-07T18:44:58.936Z,18.63
2018-04-07T18:47:27.357Z,18.90
2018-04-07T18:49:56.779Z,14.00
2018-04-07T18:52:26.474Z,12.67
2018-04-07T18:55:00.379Z,13.00
2018-04-07T18:57:29.721Z,12.80
2018-04-07T18:59:58.601Z,15.70
2018-04-07T19:02:26.848Z,16.70
2018-04-07T19:04:56.398Z,18.87
2018-04-07T19:07:26.588Z,19.53
2018-04-07T19:09:57.073Z,20.90
2018-04-07T19:12:26.514Z,23.60
2018-04-07T19:14:54.996Z,19.83
2018-04-07T19:17:24.201Z,30.57
2018-04-07T19:19:52.496Z,20.90
2018-04-07T19:22:22.690Z,14.80
2018-04-07T19:24:52.264Z,17.17
2018-04-07T19:27:24.004Z,20.10
2018-04-07T19:29:53.107Z,18.30
2018-04-07T19:32:22.162Z,20.60
2018-04-07T19:34:51.908Z,19.53
2018-04-07T19:37:21.004Z,21.20
2018-04-07T19:39:50.312Z,19.33
2018-04-07T19:42:19.422Z,17.40
2018-04-07T19:44:49.274Z,20.07
2018-04-07T19:47:19.073Z,19.60
2018-04-07T19:49:48.471Z,17.97
2018-04-07T19:52:15.957Z,21.03
2018-04-07T19:54:45.427Z,17.53
2018-04-07T19:57:15.470Z,21.87
2018-04-07T19:59:48.990Z,22.73
2018-04-07T20:02:19.675Z,20.07
2018-04-07T20:04:50.274Z,16.50
2018-04-07T20:07:20.197Z,16.70
2018-04-07T20:09:54.529Z,24.47
2018-04-07T20:12:23.417Z,18.93
2018-04-07T20:14:53.059Z,16.60
2018-04-07T20:17:27.524Z,15.87
2018-04-07T20:19:57.838Z,31.37
2018-04-07T20:22:28.212Z,21.73
2018-04-07T20:24:57.158Z,16.00
2018-04-07T20:27:27.606Z,27.03
2018-04-07T20:29:56.794Z,20.00
2018-04-07T20:32:26.005Z,20.77
2018-04-07T20:34:55.603Z,19.53
2018-04-07T20:37:26.378Z,17.27
2018-04-07T20:39:55.744Z,19.50
2018-04-07T20:42:30.416Z,21.50
2018-04-07T20:44:59.468Z,20.93
2018-04-07T20:47:28.886Z,28.00
2018-04-07T20:49:58.535Z,25.53
2018-04-07T20:52:27.883Z,28.43
2018-04-07T20:54:57.399Z,29.80
2018-04-07T20:57:26.613Z,23.47
2018-04-07T20:59:55.760Z,26.73
2018-04-07T21:02:24.940Z,26.83
2018-04-07T21:04:54.436Z,26.97
2018-04-07T21:07:23.781Z,25.77
2018-04-07T21:09:51.238Z,26.23
2018-04-07T21:12:20.735Z,29.37
2018-04-07T21:14:50.748Z,23.20
2018-04-07T21:17:20.316Z,25.30
2018-04-07T21:19:47.865Z,21.30
2018-04-07T21:22:15.338Z,24.37
2018-04-07T21:24:42.791Z,24.27
2018-04-07T21:27:10.281Z,26.50
2018-04-07T21:29:37.952Z,23.20
2018-04-07T21:32:05.431Z,26.03
2018-04-07T21:34:33.271Z,24.90
2018-04-07T21:37:00.744Z,23.77
2018-04-07T21:39:28.626Z,22.53
2018-04-07T21:41:56.690Z,21.50
2018-04-07T21:44:24.251Z,24.87
2018-04-07T21:46:52.262Z,23.67
2018-04-07T21:49:19.811Z,23.23
2018-04-07T21:51:47.310Z,24.97
2018-04-07T21:54:14.824Z,26.90
2018-04-07T21:56:42.320Z,24.20
2018-04-07T21:59:09.824Z,34.30
2018-04-07T22:01:37.324Z,27.57
2018-04-07T22:04:04.798Z,27.37
2018-04-07T22:06:32.906Z,21.27
2018-04-07T22:09:00.352Z,25.93
2018-04-07T22:11:27.857Z,25.37
2018-04-07T22:13:55.320Z,22.40
2018-04-07T22:16:23.219Z,26.47
2018-04-07T22:18:50.696Z,24.53
2018-04-07T22:21:18.638Z,21.33
2018-04-07T22:23:46.159Z,25.30
2018-04-07T22:26:13.656Z,22.00
2018-04-07T22:28:41.101Z,21.33
2018-04-07T22:31:08.595Z,25.63
2018-04-07T22:33:36.339Z,20.10
2018-04-07T22:36:04.064Z,25.67
2018-04-07T22:38:31.509Z,24.43
2018-04-07T22:40:58.960Z,20.77
2018-04-07T22:43:26.460Z,24.60
2018-04-07T22:45:53.989Z,27.20
2018-04-07T22:48:21.530Z,27.10
2018-04-07T22:50:49.035Z,24.57
2018-04-07T22:53:16.498Z,27.03
2018-04-07T22:55:44.063Z,29.00
2018-04-07T22:58:12.025Z,24.43
2018-04-07T23:00:39.602Z,22.97
2018-04-07T23:03:07.086Z,23.60
2018-04-07T23:05:34.555Z,24.73
2018-04-07T23:08:02.122Z,23.07
2018-04-07T23:10:30.042Z,26.77
2018-04-07T23:12:57.508Z,26.23
2018-04-07T23:15:25.340Z,26.07
2018-04-07T23:17:52.786Z,23.13
2018-04-07T23:20:20.242Z,25.97
2018-04-07T23:22:47.724Z,23.20
2018-04-07T23:25:15.196Z,25.07
2018-04-07T23:27:42.649Z,27.70
2018-04-07T23:30:10.129Z,22.40
2018-04-07T23:32:38.092Z,26.73
2018-04-07T23:35:05.561Z,28.33
2018-04-07T23:37:33.403Z,25.67
2018-04-07T23:40:00.906Z,24.63
2018-04-07T23:42:28.402Z,25.10
2018-04-07T23:44:55.847Z,27.00
2018-04-07T23:47:23.828Z,24.30
2018-04-07T23:49:51.289Z,24.83
2018-04-07T23:52:18.781Z,25.63
2018-04-07T23:54:46.308Z,24.33
2018-04-07T23:57:13.774Z,23.63
2018-04-07T23:59:41.249Z,23.97
